Time,TemperatureF,DewpointF,PressureIn,WindDirection,WindDirectionDegrees,WindSpeedMPH,WindSpeedGustMPH,Humidity,HourlyPrecipIn,Conditions,Clouds,dailyrainin,SoftwareType,DateUTC
2013-07-16 00:03:00,54.5,48.2,29.98,SSE,157,5.0,8.0,79,0.00,,,0.00,meteohub,2013-07-16 06:03:00,
2013-07-16 00:08:00,54.5,47.8,29.98,SW,235,5.0,8.0,78,0.00,,,0.00,meteohub,2013-07-16 06:08:00,
2013-07-16 00:14:00,54.5,47.8,29.98,SW,219,6.0,8.0,78,0.00,,,0.00,meteohub,2013-07-16 06:14:00,
2013-07-16 00:19:00,54.3,47.7,29.98,SW,221,5.0,8.0,78,0.00,,,0.00,meteohub,2013-07-16 06:19:00,
2013-07-16 00:24:00,54.3,48.0,29.98,SW,233,7.0,8.0,79,0.00,,,0.00,meteohub,2013-07-16 06:24:00,
2013-07-16 00:29:00,54.3,47.7,29.97,WSW,240,4.0,8.0,78,0.00,,,0.00,meteohub,2013-07-16 06:29:00,
2013-07-16 00:34:00,54.1,47.8,29.97,SSW,208,2.0,7.0,79,0.00,,,0.00,meteohub,2013-07-16 06:34:00,
2013-07-16 00:39:00,54.0,47.7,29.97,WSW,243,5.0,7.0,79,0.00,,,0.00,meteohub,2013-07-16 06:39:00,
2013-07-16 00:44:00,53.8,47.5,29.98,WSW,245,4.0,8.0,79,0.00,,,0.00,meteohub,2013-07-16 06:44:00,
2013-07-16 00:49:00,53.8,47.5,29.98,South,177,3.0,8.0,79,0.00,,,0.00,meteohub,2013-07-16 06:49:00,
2013-07-16 00:54:00,53.4,47.5,29.98,SW,225,6.0,8.0,80,0.00,,,0.00,meteohub,2013-07-16 06:54:00,
2013-07-16 00:59:00,53.2,46.9,29.98,WSW,247,6.0,8.0,79,0.00,,,0.00,meteohub,2013-07-16 06:59:00,
2013-07-16 01:04:00,53.2,47.3,29.98,South,177,3.0,8.0,80,0.00,,,0.00,meteohub,2013-07-16 07:04:00,
2013-07-16 01:09:00,53.2,47.3,29.98,North,356,1.0,10.0,80,0.00,,,0.00,meteohub,2013-07-16 07:09:00,
2013-07-16 01:14:00,53.1,47.1,29.98,South,190,6.0,10.0,80,0.00,,,0.00,meteohub,2013-07-16 07:14:00,
2013-07-16 01:19:00,53.1,47.1,29.98,SSW,205,3.0,10.0,80,0.00,,,0.00,meteohub,2013-07-16 07:19:00,
2013-07-16 01:24:00,52.9,46.9,29.98,SSW,212,2.0,9.0,80,0.00,,,0.00,meteohub,2013-07-16 07:24:00,
2013-07-16 01:30:00,52.5,46.9,29.98,WSW,238,4.0,9.0,81,0.00,,,0.00,meteohub,2013-07-16 07:30:00,
2013-07-16 01:35:00,52.3,46.8,29.98,SW,226,2.0,8.0,81,0.00,,,0.00,meteohub,2013-07-16 07:35:00,
2013-07-16 01:40:00,52.2,46.6,29.97,SSW,211,3.0,7.0,81,0.00,,,0.00,meteohub,2013-07-16 07:40:00,
2013-07-16 01:45:00,52.2,46.6,29.97,WSW,239,2.0,7.0,81,0.00,,,0.00,meteohub,2013-07-16 07:45:00,
2013-07-16 01:50:00,51.8,46.2,29.97,SW,233,2.0,7.0,81,0.00,,,0.00,meteohub,2013-07-16 07:50:00,
2013-07-16 01:55:00,51.8,46.2,29.97,WSW,243,7.0,7.0,81,0.00,,,0.00,meteohub,2013-07-16 07:55:00,
2013-07-16 02:00:00,51.6,46.0,29.97,South,183,3.0,8.0,81,0.00,,,0.00,meteohub,2013-07-16 08:00:00,
2013-07-16 02:05:00,51.6,46.0,29.96,SW,218,3.0,8.0,81,0.00,,,0.00,meteohub,2013-07-16 08:05:00,
2013-07-16 02:10:00,51.4,46.2,29.96,South,183,2.0,8.0,82,0.00,,,0.00,meteohub,2013-07-16 08:10:00,
2013-07-16 02:15:00,51.3,46.0,29.96,SSW,203,2.0,8.0,82,0.00,,,0.00,meteohub,2013-07-16 08:15:00,
2013-07-16 02:20:00,51.1,46.0,29.97,South,184,4.0,9.0,83,0.00,,,0.00,meteohub,2013-07-16 08:20:00,
2013-07-16 02:25:00,51.1,46.4,29.97,SW,215,3.0,9.0,84,0.00,,,0.00,meteohub,2013-07-16 08:25:00,
2013-07-16 02:30:00,51.1,46.4,29.96,SSW,211,5.0,9.0,84,0.00,,,0.00,meteohub,2013-07-16 08:30:00,
2013-07-16 02:35:00,50.9,46.2,29.96,SW,218,3.0,9.0,84,0.00,,,0.00,meteohub,2013-07-16 08:35:00,
2013-07-16 02:40:00,50.7,46.4,29.96,South,173,5.0,9.0,85,0.00,,,0.00,meteohub,2013-07-16 08:40:00,
2013-07-16 02:45:00,50.5,46.2,29.96,SW,218,5.0,9.0,85,0.00,,,0.00,meteohub,2013-07-16 08:45:00,
2013-07-16 02:51:00,50.4,46.4,29.96,North,355,1.0,9.0,86,0.00,,,0.00,meteohub,2013-07-16 08:51:00,
2013-07-16 02:56:00,50.4,46.4,29.96,South,181,3.0,8.0,86,0.00,,,0.00,meteohub,2013-07-16 08:56:00,
2013-07-16 03:01:00,50.2,46.2,29.96,SSE,167,1.0,9.0,86,0.00,,,0.00,meteohub,2013-07-16 09:01:00,
2013-07-16 03:06:00,50.2,46.4,29.96,South,187,4.0,9.0,87,0.00,,,0.00,meteohub,2013-07-16 09:06:00,
2013-07-16 03:11:00,49.8,46.0,29.96,SSW,212,2.0,9.0,87,0.00,,,0.00,meteohub,2013-07-16 09:11:00,
2013-07-16 03:16:00,49.6,45.9,29.96,South,184,2.0,9.0,87,0.00,,,0.00,meteohub,2013-07-16 09:16:00,
2013-07-16 03:21:00,49.6,46.2,29.96,SW,224,2.0,8.0,88,0.00,,,0.00,meteohub,2013-07-16 09:21:00,
2013-07-16 03:26:00,49.5,46.4,29.96,SSW,210,3.0,8.0,89,0.00,,,0.00,meteohub,2013-07-16 09:26:00,
2013-07-16 03:31:00,49.5,46.4,29.95,WSW,240,3.0,8.0,89,0.00,,,0.00,meteohub,2013-07-16 09:31:00,
2013-07-16 03:36:00,49.5,46.4,29.96,SSW,210,3.0,8.0,89,0.00,,,0.00,meteohub,2013-07-16 09:36:00,
2013-07-16 03:41:00,49.3,46.2,29.96,SE,124,3.0,8.0,89,0.00,,,0.00,meteohub,2013-07-16 09:41:00,
2013-07-16 03:46:00,49.1,46.2,29.96,ESE,109,3.0,8.0,90,0.00,,,0.00,meteohub,2013-07-16 09:46:00,
2013-07-16 03:51:00,48.9,46.0,29.96,SSW,193,2.0,7.0,90,0.00,,,0.00,meteohub,2013-07-16 09:51:00,
2013-07-16 03:56:00,48.9,46.0,29.96,SE,139,2.0,8.0,90,0.00,,,0.00,meteohub,2013-07-16 09:56:00,
2013-07-16 04:01:00,48.4,45.5,29.96,South,170,4.0,8.0,90,0.00,,,0.00,meteohub,2013-07-16 10:01:00,
2013-07-16 04:06:00,47.8,45.3,29.96,South,176,3.0,6.0,91,0.00,,,0.00,meteohub,2013-07-16 10:06:00,
2013-07-16 04:12:00,47.7,45.5,29.96,SSW,203,3.0,4.0,92,0.00,,,0.00,meteohub,2013-07-16 10:12:00,
2013-07-16 04:17:00,47.7,45.7,29.96,South,191,2.0,4.0,93,0.00,,,0.00,meteohub,2013-07-16 10:17:00,
2013-07-16 04:22:00,47.7,45.7,29.96,SW,225,2.0,4.0,93,0.00,,,0.00,meteohub,2013-07-16 10:22:00,
2013-07-16 04:27:00,47.7,45.7,29.96,SSW,211,3.0,4.0,93,0.00,,,0.00,meteohub,2013-07-16 10:27:00,
2013-07-16 04:32:00,47.7,45.7,29.96,West,271,2.0,5.0,93,0.00,,,0.00,meteohub,2013-07-16 10:32:00,
2013-07-16 04:37:00,47.7,45.5,29.95,SSW,205,2.0,5.0,92,0.00,,,0.00,meteohub,2013-07-16 10:37:00,
2013-07-16 04:42:00,47.7,45.5,29.96,SW,233,1.0,5.0,92,0.00,,,0.00,meteohub,2013-07-16 10:42:00,
2013-07-16 04:47:00,47.5,45.3,29.96,SW,229,1.0,5.0,92,0.00,,,0.00,meteohub,2013-07-16 10:47:00,
2013-07-16 04:52:00,47.5,45.3,29.96,SW,231,1.0,4.0,92,0.00,,,0.00,meteohub,2013-07-16 10:52:00,
2013-07-16 04:57:00,47.5,45.3,29.96,SW,219,0.0,3.0,92,0.00,,,0.00,meteohub,2013-07-16 10:57:00,
2013-07-16 05:02:00,47.5,45.3,29.96,SSW,210,0.0,2.0,92,0.00,,,0.00,meteohub,2013-07-16 11:02:00,
2013-07-16 05:07:00,47.5,45.3,29.96,SW,218,1.0,2.0,92,0.00,,,0.00,meteohub,2013-07-16 11:07:00,
2013-07-16 05:12:00,47.3,45.1,29.96,SSW,212,0.0,2.0,92,0.00,,,0.00,meteohub,2013-07-16 11:12:00,
2013-07-16 05:17:00,47.3,45.1,29.96,SW,215,0.0,2.0,92,0.00,,,0.00,meteohub,2013-07-16 11:17:00,
2013-07-16 05:22:00,47.1,45.0,29.96,SSW,210,0.0,2.0,92,0.00,,,0.00,meteohub,2013-07-16 11:22:00,
2013-07-16 05:28:00,47.1,45.0,29.96,SW,216,0.0,0.0,92,0.00,,,0.00,meteohub,2013-07-16 11:28:00,
2013-07-16 05:33:00,47.1,45.0,29.96,SSW,212,0.0,0.0,92,0.00,,,0.00,meteohub,2013-07-16 11:33:00,
2013-07-16 05:38:00,47.1,45.0,29.97,SSW,205,1.0,0.0,92,0.00,,,0.00,meteohub,2013-07-16 11:38:00,
2013-07-16 05:43:00,46.9,44.8,29.97,SW,216,1.0,2.0,92,0.00,,,0.00,meteohub,2013-07-16 11:43:00,
2013-07-16 05:48:00,46.9,45.0,29.97,SSE,162,1.0,2.0,93,0.00,,,0.00,meteohub,2013-07-16 11:48:00,
2013-07-16 05:53:00,47.1,45.1,29.97,SSE,160,0.0,2.0,93,0.00,,,0.00,meteohub,2013-07-16 11:53:00,
2013-07-16 05:58:00,46.9,45.0,29.97,SSE,160,0.0,2.0,93,0.00,,,0.00,meteohub,2013-07-16 11:58:00,
2013-07-16 06:03:00,46.8,44.8,29.97,SSE,160,0.0,2.0,93,0.00,,,0.00,meteohub,2013-07-16 12:03:00,
2013-07-16 06:08:00,46.8,44.8,29.97,WSW,243,1.0,1.0,93,0.00,,,0.00,meteohub,2013-07-16 12:08:00,
2013-07-16 06:13:00,47.1,45.0,29.97,SSW,198,1.0,2.0,92,0.00,,,0.00,meteohub,2013-07-16 12:13:00,
2013-07-16 06:18:00,47.1,45.0,29.97,SW,215,2.0,2.0,92,0.00,,,0.00,meteohub,2013-07-16 12:18:00,
2013-07-16 06:23:00,47.1,45.0,29.97,South,175,2.0,2.0,92,0.00,,,0.00,meteohub,2013-07-16 12:23:00,
2013-07-16 06:29:00,46.8,44.8,29.97,SSW,203,2.0,2.0,93,0.00,,,0.00,meteohub,2013-07-16 12:29:00,
2013-07-16 06:34:00,46.8,45.1,29.97,SSW,211,0.0,3.0,94,0.00,,,0.00,meteohub,2013-07-16 12:34:00,
2013-07-16 06:39:00,46.8,45.1,29.98,SSW,212,1.0,3.0,94,0.00,,,0.00,meteohub,2013-07-16 12:39:00,
2013-07-16 06:44:00,46.8,44.8,29.98,SW,232,2.0,2.0,93,0.00,,,0.00,meteohub,2013-07-16 12:44:00,
2013-07-16 06:50:00,46.8,44.8,29.98,SSW,197,0.0,2.0,93,0.00,,,0.00,meteohub,2013-07-16 12:50:00,
2013-07-16 06:55:00,46.8,44.8,29.98,SSW,193,0.0,2.0,93,0.00,,,0.00,meteohub,2013-07-16 12:55:00,
2013-07-16 07:00:00,47.1,45.1,29.98,WSW,245,1.0,2.0,93,0.00,,,0.00,meteohub,2013-07-16 13:00:00,
2013-07-16 07:05:00,47.3,45.3,29.98,South,191,2.0,3.0,93,0.00,,,0.00,meteohub,2013-07-16 13:05:00,
2013-07-16 07:10:00,47.7,45.7,29.99,SE,146,2.0,3.0,93,0.00,,,0.00,meteohub,2013-07-16 13:10:00,
2013-07-16 07:15:00,48.2,46.2,29.99,SSE,163,1.0,3.0,93,0.00,,,0.00,meteohub,2013-07-16 13:15:00,
2013-07-16 07:20:00,49.1,46.9,29.99,SE,126,1.0,3.0,92,0.00,,,0.00,meteohub,2013-07-16 13:20:00,
2013-07-16 07:25:00,49.6,46.8,29.99,ESE,117,1.0,3.0,90,0.00,,,0.00,meteohub,2013-07-16 13:25:00,
2013-07-16 07:30:00,50.0,46.9,29.99,SSE,147,2.0,3.0,89,0.00,,,0.00,meteohub,2013-07-16 13:30:00,
2013-07-16 07:35:00,50.2,47.1,29.99,SE,125,3.0,4.0,89,0.00,,,0.00,meteohub,2013-07-16 13:35:00,
2013-07-16 07:41:00,50.4,47.3,29.99,ESE,115,2.0,5.0,89,0.00,,,0.00,meteohub,2013-07-16 13:41:00,
2013-07-16 07:46:00,50.9,47.5,29.99,SE,146,4.0,5.0,88,0.00,,,0.00,meteohub,2013-07-16 13:46:00,
2013-07-16 07:51:00,51.3,47.8,29.99,SSE,162,2.0,5.0,88,0.00,,,0.00,meteohub,2013-07-16 13:51:00,
2013-07-16 07:56:00,51.4,47.5,29.99,ESE,113,5.0,6.0,86,0.00,,,0.00,meteohub,2013-07-16 13:56:00,
2013-07-16 08:01:00,51.3,47.5,29.99,SSW,194,4.0,7.0,87,0.00,,,0.00,meteohub,2013-07-16 14:01:00,
2013-07-16 08:06:00,51.8,47.7,29.99,ESE,103,2.0,7.0,86,0.00,,,0.00,meteohub,2013-07-16 14:06:00,
2013-07-16 08:11:00,52.3,47.7,29.99,SSE,148,5.0,7.0,84,0.00,,,0.00,meteohub,2013-07-16 14:11:00,
2013-07-16 08:16:00,52.3,47.7,29.99,SSE,148,2.0,6.0,84,0.00,,,0.00,meteohub,2013-07-16 14:16:00,
2013-07-16 08:21:00,52.9,47.8,29.99,SSE,150,7.0,7.0,83,0.00,,,0.00,meteohub,2013-07-16 14:21:00,
2013-07-16 08:26:00,52.7,47.3,29.99,East,90,2.0,8.0,82,0.00,,,0.00,meteohub,2013-07-16 14:26:00,
2013-07-16 08:31:00,53.1,47.7,29.99,SSE,165,4.0,8.0,82,0.00,,,0.00,meteohub,2013-07-16 14:31:00,
2013-07-16 08:36:00,53.4,47.5,29.99,ESE,108,2.0,8.0,80,0.00,,,0.00,meteohub,2013-07-16 14:36:00,
2013-07-16 08:41:00,53.6,47.7,29.99,SSE,154,2.0,7.0,80,0.00,,,0.00,meteohub,2013-07-16 14:41:00,
2013-07-16 08:47:00,54.0,47.7,29.99,SSE,160,4.0,7.0,79,0.00,,,0.00,meteohub,2013-07-16 14:47:00,
2013-07-16 08:52:00,54.3,47.3,29.99,SSE,154,4.0,6.0,77,0.00,,,0.00,meteohub,2013-07-16 14:52:00,
2013-07-16 08:57:00,54.3,47.7,29.99,South,191,4.0,7.0,78,0.00,,,0.00,meteohub,2013-07-16 14:57:00,
2013-07-16 09:02:00,55.0,48.0,30.00,SSE,167,3.0,7.0,77,0.00,,,0.00,meteohub,2013-07-16 15:02:00,
2013-07-16 09:07:00,55.4,47.7,30.00,SSE,153,4.0,8.0,75,0.00,,,0.00,meteohub,2013-07-16 15:07:00,
2013-07-16 09:12:00,55.6,46.8,30.00,SSE,148,2.0,8.0,72,0.00,,,0.00,meteohub,2013-07-16 15:12:00,
2013-07-16 09:17:00,55.8,47.7,30.00,SE,128,2.0,8.0,74,0.00,,,0.00,meteohub,2013-07-16 15:17:00,
2013-07-16 09:22:00,55.9,47.8,29.99,SW,214,0.0,6.0,74,0.00,,,0.00,meteohub,2013-07-16 15:22:00,
2013-07-16 09:27:00,56.3,47.5,29.99,ESE,113,0.0,6.0,72,0.00,,,0.00,meteohub,2013-07-16 15:27:00,
2013-07-16 09:32:00,56.8,48.6,29.99,NE,34,0.0,5.0,74,0.00,,,0.00,meteohub,2013-07-16 15:32:00,
2013-07-16 09:37:00,57.0,47.7,29.99,NNE,12,1.0,5.0,71,0.00,,,0.00,meteohub,2013-07-16 15:37:00,
2013-07-16 09:42:00,56.7,47.7,29.99,NNE,25,5.0,7.0,72,0.00,,,0.00,meteohub,2013-07-16 15:42:00,
2013-07-16 09:47:00,57.0,48.0,29.99,NNE,18,7.0,8.0,72,0.00,,,0.00,meteohub,2013-07-16 15:47:00,
2013-07-16 09:52:00,56.7,48.7,29.99,NNE,18,4.0,10.0,75,0.00,,,0.00,meteohub,2013-07-16 15:52:00,
2013-07-16 09:57:00,56.8,48.2,29.99,NNE,18,4.0,10.0,73,0.00,,,0.00,meteohub,2013-07-16 15:57:00,
2013-07-16 10:02:00,57.4,48.4,29.99,ENE,63,2.0,10.0,72,0.00,,,0.00,meteohub,2013-07-16 16:02:00,
2013-07-16 10:07:00,57.2,47.5,29.99,ESE,121,1.0,9.0,70,0.00,,,0.00,meteohub,2013-07-16 16:07:00,
2013-07-16 10:12:00,58.1,49.5,29.99,ENE,68,4.0,8.0,73,0.00,,,0.00,meteohub,2013-07-16 16:12:00,
2013-07-16 10:17:00,59.2,49.1,29.99,SE,128,3.0,8.0,69,0.00,,,0.00,meteohub,2013-07-16 16:17:00,
2013-07-16 10:22:00,59.5,48.9,29.99,East,98,3.0,7.0,68,0.00,,,0.00,meteohub,2013-07-16 16:22:00,
2013-07-16 10:27:00,59.4,49.6,29.99,NW,304,3.0,7.0,70,0.00,,,0.00,meteohub,2013-07-16 16:27:00,
2013-07-16 10:32:00,58.6,48.2,29.99,East,82,0.0,8.0,68,0.00,,,0.00,meteohub,2013-07-16 16:32:00,
2013-07-16 10:37:00,59.2,49.1,29.99,NNW,334,4.0,9.0,69,0.00,,,0.00,meteohub,2013-07-16 16:37:00,
2013-07-16 10:42:00,59.2,49.1,29.99,NNE,20,2.0,9.0,69,0.00,,,0.00,meteohub,2013-07-16 16:42:00,
2013-07-16 10:47:00,59.4,49.1,29.99,NNW,335,3.0,8.0,69,0.00,,,0.00,meteohub,2013-07-16 16:47:00,
2013-07-16 10:52:00,59.7,48.7,29.99,ENE,75,3.0,8.0,67,0.00,,,0.00,meteohub,2013-07-16 16:52:00,
2013-07-16 10:57:00,60.4,48.6,29.98,SE,126,7.0,8.0,65,0.00,,,0.00,meteohub,2013-07-16 16:57:00,
2013-07-16 11:02:00,60.4,49.1,29.98,East,101,3.0,10.0,66,0.00,,,0.00,meteohub,2013-07-16 17:02:00,
2013-07-16 11:07:00,62.1,48.9,29.98,SSE,153,7.0,10.0,62,0.00,,,0.00,meteohub,2013-07-16 17:07:00,
2013-07-16 11:12:00,62.1,48.9,29.98,SW,221,7.0,10.0,62,0.00,,,0.00,meteohub,2013-07-16 17:12:00,
2013-07-16 11:17:00,61.7,48.2,29.98,SW,235,5.0,10.0,61,0.00,,,0.00,meteohub,2013-07-16 17:17:00,
2013-07-16 11:22:00,62.2,49.1,29.99,SSE,166,4.0,10.0,62,0.00,,,0.00,meteohub,2013-07-16 17:22:00,
2013-07-16 11:27:00,62.8,48.7,29.98,SSE,153,2.0,10.0,60,0.00,,,0.00,meteohub,2013-07-16 17:27:00,
2013-07-16 11:32:00,63.3,47.8,29.98,ESE,117,1.0,9.0,57,0.00,,,0.00,meteohub,2013-07-16 17:32:00,
2013-07-16 11:37:00,63.5,47.5,29.97,SE,136,2.0,9.0,56,0.00,,,0.00,meteohub,2013-07-16 17:37:00,
2013-07-16 11:42:00,63.7,47.7,29.97,ESE,103,4.0,9.0,56,0.00,,,0.00,meteohub,2013-07-16 17:42:00,
2013-07-16 11:48:00,63.7,45.7,29.97,East,100,4.0,8.0,52,0.00,,,0.00,meteohub,2013-07-16 17:48:00,
2013-07-16 11:53:00,63.1,47.7,29.97,South,190,8.0,11.0,57,0.00,,,0.00,meteohub,2013-07-16 17:53:00,
2013-07-16 11:58:00,63.9,47.8,29.97,SSW,193,2.0,11.0,56,0.00,,,0.00,meteohub,2013-07-16 17:58:00,
2013-07-16 12:03:00,63.9,47.8,29.97,SSE,156,2.0,11.0,56,0.00,,,0.00,meteohub,2013-07-16 18:03:00,
2013-07-16 12:08:00,64.6,47.5,29.97,SSE,148,3.0,10.0,54,0.00,,,0.00,meteohub,2013-07-16 18:08:00,
2013-07-16 12:13:00,64.6,47.1,29.97,SE,127,6.0,10.0,53,0.00,,,0.00,meteohub,2013-07-16 18:13:00,
2013-07-16 12:18:00,65.1,48.6,29.97,ESE,121,3.0,10.0,55,0.00,,,0.00,meteohub,2013-07-16 18:18:00,
2013-07-16 12:23:00,65.5,46.9,29.97,SW,217,6.0,10.0,51,0.00,,,0.00,meteohub,2013-07-16 18:23:00,
2013-07-16 12:28:00,65.8,48.2,29.97,SSE,166,9.0,10.0,53,0.00,,,0.00,meteohub,2013-07-16 18:28:00,
2013-07-16 12:33:00,65.8,47.7,29.97,SSW,203,5.0,10.0,52,0.00,,,0.00,meteohub,2013-07-16 18:33:00,
2013-07-16 12:38:00,65.7,46.6,29.97,ESE,120,6.0,13.0,50,0.00,,,0.00,meteohub,2013-07-16 18:38:00,
2013-07-16 12:43:00,65.7,46.6,29.97,South,186,3.0,13.0,50,0.00,,,0.00,meteohub,2013-07-16 18:43:00,
2013-07-16 12:48:00,66.4,47.7,29.97,SSE,147,3.0,13.0,51,0.00,,,0.00,meteohub,2013-07-16 18:48:00,
2013-07-16 12:51:00,66.6,47.3,29.97,ESE,110,3.0,12.0,50,0.00,,,0.00,meteohub,2013-07-16 18:51:00,
2013-07-16 12:56:00,66.7,46.9,29.97,SE,124,4.0,12.0,49,0.00,,,0.00,meteohub,2013-07-16 18:56:00,
2013-07-16 13:01:00,66.6,47.8,29.97,SSE,147,9.0,12.0,51,0.00,,,0.00,meteohub,2013-07-16 19:01:00,
2013-07-16 13:07:00,67.3,46.4,29.97,SW,226,4.0,10.0,47,0.00,,,0.00,meteohub,2013-07-16 19:07:00,
2013-07-16 13:12:00,67.5,47.1,29.96,SSE,162,9.0,10.0,48,0.00,,,0.00,meteohub,2013-07-16 19:12:00,
2013-07-16 13:17:00,67.3,47.5,29.96,SE,142,4.0,12.0,49,0.00,,,0.00,meteohub,2013-07-16 19:17:00,
2013-07-16 13:22:00,67.6,47.3,29.96,SSE,163,5.0,12.0,48,0.00,,,0.00,meteohub,2013-07-16 19:22:00,
2013-07-16 13:27:00,67.6,46.8,29.96,SE,142,5.0,14.0,47,0.00,,,0.00,meteohub,2013-07-16 19:27:00,
2013-07-16 13:32:00,67.3,48.0,29.96,SSE,152,7.0,14.0,50,0.00,,,0.00,meteohub,2013-07-16 19:32:00,
2013-07-16 13:37:00,67.8,46.9,29.96,WSW,239,5.0,14.0,47,0.00,,,0.00,meteohub,2013-07-16 19:37:00,
2013-07-16 13:42:00,67.6,48.4,29.95,SE,131,1.0,14.0,50,0.00,,,0.00,meteohub,2013-07-16 19:42:00,
2013-07-16 13:47:00,68.7,47.7,29.95,SSE,148,4.0,12.0,47,0.00,,,0.00,meteohub,2013-07-16 19:47:00,
2013-07-16 13:52:00,68.7,48.2,29.95,SSE,159,1.0,13.0,48,0.00,,,0.00,meteohub,2013-07-16 19:52:00,
2013-07-16 13:58:00,68.9,47.3,29.94,South,176,4.0,13.0,46,0.00,,,0.00,meteohub,2013-07-16 19:58:00,
2013-07-16 14:03:00,69.4,48.9,29.95,South,173,2.0,13.0,48,0.00,,,0.00,meteohub,2013-07-16 20:03:00,
2013-07-16 14:08:00,69.4,46.0,29.95,SW,214,0.0,11.0,43,0.00,,,0.00,meteohub,2013-07-16 20:08:00,
2013-07-16 14:13:00,69.4,47.1,29.94,SE,133,8.0,10.0,45,0.00,,,0.00,meteohub,2013-07-16 20:13:00,
2013-07-16 14:18:00,68.5,45.7,29.94,South,190,8.0,13.0,44,0.00,,,0.00,meteohub,2013-07-16 20:18:00,
2013-07-16 14:23:00,69.3,47.7,29.94,SSW,193,2.0,13.0,46,0.00,,,0.00,meteohub,2013-07-16 20:23:00,
2013-07-16 14:28:00,70.3,48.0,29.94,SE,128,7.0,13.0,45,0.00,,,0.00,meteohub,2013-07-16 20:28:00,
2013-07-16 14:33:00,70.5,46.9,29.94,SSE,166,6.0,13.0,43,0.00,,,0.00,meteohub,2013-07-16 20:33:00,
2013-07-16 14:38:00,70.0,46.4,29.94,SSE,162,11.0,11.0,43,0.00,,,0.00,meteohub,2013-07-16 20:38:00,
2013-07-16 14:43:00,70.2,45.3,29.94,SE,136,3.0,13.0,41,0.00,,,0.00,meteohub,2013-07-16 20:43:00,
2013-07-16 14:48:00,70.0,45.9,29.94,SE,131,4.0,13.0,42,0.00,,,0.00,meteohub,2013-07-16 20:48:00,
2013-07-16 14:53:00,70.2,46.6,29.94,SSE,148,10.0,13.0,43,0.00,,,0.00,meteohub,2013-07-16 20:53:00,
2013-07-16 14:58:00,70.3,46.2,29.94,SSW,210,9.0,12.0,42,0.00,,,0.00,meteohub,2013-07-16 20:58:00,
2013-07-16 15:03:00,70.3,45.0,29.93,ESE,115,11.0,13.0,40,0.00,,,0.00,meteohub,2013-07-16 21:03:00,
2013-07-16 15:08:00,70.3,45.5,29.93,SW,231,6.0,13.0,41,0.00,,,0.00,meteohub,2013-07-16 21:08:00,
2013-07-16 15:14:00,70.7,46.4,29.93,South,169,2.0,12.0,42,0.00,,,0.00,meteohub,2013-07-16 21:14:00,
2013-07-16 15:19:00,71.4,46.6,29.93,SW,217,9.0,12.0,41,0.00,,,0.00,meteohub,2013-07-16 21:19:00,
2013-07-16 15:24:00,71.6,46.6,29.92,SSE,155,7.0,13.0,41,0.00,,,0.00,meteohub,2013-07-16 21:24:00,
2013-07-16 15:29:00,71.6,46.0,29.92,SSE,150,8.0,13.0,40,0.00,,,0.00,meteohub,2013-07-16 21:29:00,
2013-07-16 15:34:00,71.8,45.5,29.92,ENE,66,9.0,13.0,39,0.00,,,0.00,meteohub,2013-07-16 21:34:00,
2013-07-16 15:39:00,71.2,46.4,29.92,South,176,6.0,13.0,41,0.00,,,0.00,meteohub,2013-07-16 21:39:00,
2013-07-16 15:44:00,71.2,45.7,29.92,SSE,162,9.0,17.0,40,0.00,,,0.00,meteohub,2013-07-16 21:44:00,
2013-07-16 15:49:00,71.1,45.5,29.92,SE,132,10.0,17.0,40,0.00,,,0.00,meteohub,2013-07-16 21:49:00,
2013-07-16 15:54:00,71.1,44.8,29.92,SSE,165,9.0,17.0,39,0.00,,,0.00,meteohub,2013-07-16 21:54:00,
2013-07-16 15:59:00,71.1,44.8,29.92,SSE,152,9.0,18.0,39,0.00,,,0.00,meteohub,2013-07-16 21:59:00,
2013-07-16 16:05:00,71.1,46.8,29.91,SSE,147,12.0,20.0,42,0.00,,,0.00,meteohub,2013-07-16 22:05:00,
2013-07-16 16:10:00,71.2,46.4,29.91,SSE,147,6.0,20.0,41,0.00,,,0.00,meteohub,2013-07-16 22:10:00,
2013-07-16 16:15:00,70.9,45.3,29.91,SE,125,12.0,16.0,40,0.00,,,0.00,meteohub,2013-07-16 22:15:00,
2013-07-16 16:20:00,70.7,45.1,29.91,SSW,198,10.0,18.0,40,0.00,,,0.00,meteohub,2013-07-16 22:20:00,
2013-07-16 16:25:00,71.2,45.0,29.91,SSW,212,10.0,18.0,39,0.00,,,0.00,meteohub,2013-07-16 22:25:00,
2013-07-16 16:30:00,71.1,44.8,29.91,SW,214,3.0,18.0,39,0.00,,,0.00,meteohub,2013-07-16 22:30:00,
2013-07-16 16:35:00,71.4,45.9,29.91,SSE,163,7.0,16.0,40,0.00,,,0.00,meteohub,2013-07-16 22:35:00,
2013-07-16 16:40:00,71.2,46.4,29.91,South,188,12.0,19.0,41,0.00,,,0.00,meteohub,2013-07-16 22:40:00,
2013-07-16 16:45:00,71.1,46.2,29.91,SSE,164,7.0,19.0,41,0.00,,,0.00,meteohub,2013-07-16 22:45:00,
2013-07-16 16:50:00,70.9,46.0,29.91,WSW,246,6.0,19.0,41,0.00,,,0.00,meteohub,2013-07-16 22:50:00,
2013-07-16 16:55:00,71.1,46.8,29.91,SSE,159,14.0,16.0,42,0.00,,,0.00,meteohub,2013-07-16 22:55:00,
2013-07-16 17:00:00,70.9,45.3,29.91,SE,145,12.0,17.0,40,0.00,,,0.00,meteohub,2013-07-16 23:00:00,
2013-07-16 17:06:00,70.7,45.9,29.90,SSW,194,9.0,17.0,41,0.00,,,0.00,meteohub,2013-07-16 23:06:00,
2013-07-16 17:11:00,70.5,45.0,29.90,SSE,155,10.0,17.0,40,0.00,,,0.00,meteohub,2013-07-16 23:11:00,
2013-07-16 17:16:00,70.7,45.9,29.90,SSE,160,6.0,17.0,41,0.00,,,0.00,meteohub,2013-07-16 23:16:00,
2013-07-16 17:21:00,71.1,46.2,29.90,SE,134,11.0,17.0,41,0.00,,,0.00,meteohub,2013-07-16 23:21:00,
2013-07-16 17:26:00,71.4,46.6,29.90,SE,138,5.0,13.0,41,0.00,,,0.00,meteohub,2013-07-16 23:26:00,
2013-07-16 17:31:00,71.4,45.9,29.90,SSE,166,7.0,13.0,40,0.00,,,0.00,meteohub,2013-07-16 23:31:00,
2013-07-16 17:36:00,71.1,44.8,29.90,SSW,208,7.0,13.0,39,0.00,,,0.00,meteohub,2013-07-16 23:36:00,
2013-07-16 17:41:00,70.9,44.8,29.90,SW,231,5.0,15.0,39,0.00,,,0.00,meteohub,2013-07-16 23:41:00,
2013-07-16 17:46:00,70.9,44.8,29.89,WNW,295,7.0,15.0,39,0.00,,,0.00,meteohub,2013-07-16 23:46:00,
2013-07-16 17:51:00,70.9,44.8,29.90,SSE,152,3.0,15.0,39,0.00,,,0.00,meteohub,2013-07-16 23:51:00,
2013-07-16 17:56:00,70.3,45.0,29.89,SSW,208,6.0,16.0,40,0.00,,,0.00,meteohub,2013-07-16 23:56:00,
2013-07-16 18:01:00,69.6,45.0,29.89,North,9,10.0,20.0,41,0.00,,,0.00,meteohub,2013-07-17 00:01:00,
2013-07-16 18:06:00,69.4,44.8,29.89,SSW,200,9.0,20.0,41,0.00,,,0.00,meteohub,2013-07-17 00:06:00,
2013-07-16 18:12:00,69.3,45.9,29.89,SSE,163,7.0,20.0,43,0.00,,,0.00,meteohub,2013-07-17 00:12:00,
2013-07-16 18:17:00,69.1,45.7,29.89,SSE,167,15.0,19.0,43,0.00,,,0.00,meteohub,2013-07-17 00:17:00,
2013-07-16 18:22:00,68.7,45.9,29.89,SW,233,5.0,19.0,44,0.00,,,0.00,meteohub,2013-07-17 00:22:00,
2013-07-16 18:27:00,68.7,45.3,29.90,WNW,298,7.0,19.0,43,0.00,,,0.00,meteohub,2013-07-17 00:27:00,
2013-07-16 18:32:00,68.4,45.0,29.90,SE,139,12.0,19.0,43,0.00,,,0.00,meteohub,2013-07-17 00:32:00,
2013-07-16 18:37:00,68.2,45.5,29.90,South,186,6.0,18.0,44,0.00,,,0.00,meteohub,2013-07-17 00:37:00,
2013-07-16 18:42:00,68.2,46.0,29.90,South,170,14.0,18.0,45,0.00,,,0.00,meteohub,2013-07-17 00:42:00,
2013-07-16 18:47:00,67.8,46.2,29.90,SW,221,13.0,19.0,46,0.00,,,0.00,meteohub,2013-07-17 00:47:00,
2013-07-16 18:52:00,67.6,46.0,29.90,SSW,193,4.0,19.0,46,0.00,,,0.00,meteohub,2013-07-17 00:52:00,
2013-07-16 18:57:00,67.5,46.0,29.90,South,180,5.0,19.0,46,0.00,,,0.00,meteohub,2013-07-17 00:57:00,
2013-07-16 19:02:00,67.1,46.2,29.90,South,174,7.0,18.0,47,0.00,,,0.00,meteohub,2013-07-17 01:02:00,
2013-07-16 19:07:00,66.7,45.9,29.91,SW,221,12.0,18.0,47,0.00,,,0.00,meteohub,2013-07-17 01:07:00,
2013-07-16 19:12:00,66.6,46.2,29.91,SSE,162,10.0,18.0,48,0.00,,,0.00,meteohub,2013-07-17 01:12:00,
2013-07-16 19:17:00,66.6,46.2,29.91,South,191,9.0,18.0,48,0.00,,,0.00,meteohub,2013-07-17 01:17:00,
2013-07-16 19:22:00,66.4,46.6,29.91,SSW,210,6.0,16.0,49,0.00,,,0.00,meteohub,2013-07-17 01:22:00,
2013-07-16 19:27:00,66.0,46.4,29.91,NW,314,5.0,16.0,49,0.00,,,0.00,meteohub,2013-07-17 01:27:00,
2013-07-16 19:32:00,65.8,47.1,29.92,SSW,203,4.0,16.0,51,0.00,,,0.00,meteohub,2013-07-17 01:32:00,
2013-07-16 19:37:00,65.7,47.1,29.92,ENE,66,4.0,15.0,51,0.00,,,0.00,meteohub,2013-07-17 01:37:00,
2013-07-16 19:42:00,65.3,46.8,29.92,WSW,249,15.0,15.0,51,0.00,,,0.00,meteohub,2013-07-17 01:42:00,
2013-07-16 19:47:00,64.9,46.9,29.93,SE,140,1.0,15.0,52,0.00,,,0.00,meteohub,2013-07-17 01:47:00,
2013-07-16 19:52:00,64.6,46.6,29.93,SW,233,7.0,15.0,52,0.00,,,0.00,meteohub,2013-07-17 01:52:00,
2013-07-16 19:57:00,63.9,46.4,29.94,South,184,8.0,15.0,53,0.00,,,0.00,meteohub,2013-07-17 01:57:00,
2013-07-16 20:02:00,63.1,46.2,29.94,SSE,158,2.0,10.0,54,0.00,,,0.00,meteohub,2013-07-17 02:02:00,
2013-07-16 20:07:00,62.8,46.4,29.94,NNW,336,3.0,12.0,55,0.00,,,0.00,meteohub,2013-07-17 02:07:00,
2013-07-16 20:12:00,62.4,46.0,29.94,SSE,160,6.0,13.0,55,0.00,,,0.00,meteohub,2013-07-17 02:12:00,
2013-07-16 20:17:00,62.2,45.9,29.94,South,184,5.0,13.0,55,0.00,,,0.00,meteohub,2013-07-17 02:17:00,
2013-07-16 20:22:00,62.1,45.7,29.95,SSE,160,5.0,13.0,55,0.00,,,0.00,meteohub,2013-07-17 02:22:00,
2013-07-16 20:27:00,61.9,45.5,29.96,SSW,210,3.0,13.0,55,0.00,,,0.00,meteohub,2013-07-17 02:27:00,
2013-07-16 20:32:00,61.5,46.2,29.95,South,190,3.0,11.0,57,0.00,,,0.00,meteohub,2013-07-17 02:32:00,
2013-07-16 20:37:00,61.2,46.2,29.96,SE,128,6.0,11.0,58,0.00,,,0.00,meteohub,2013-07-17 02:37:00,
2013-07-16 20:42:00,61.0,45.7,29.96,SSE,153,7.0,14.0,57,0.00,,,0.00,meteohub,2013-07-17 02:42:00,
2013-07-16 20:47:00,60.8,45.9,29.96,South,172,5.0,14.0,58,0.00,,,0.00,meteohub,2013-07-17 02:47:00,
2013-07-16 20:52:00,60.6,45.7,29.96,SSE,160,3.0,14.0,58,0.00,,,0.00,meteohub,2013-07-17 02:52:00,
2013-07-16 20:57:00,60.4,46.0,29.97,SSE,162,0.0,9.0,59,0.00,,,0.00,meteohub,2013-07-17 02:57:00,
2013-07-16 21:02:00,60.3,45.9,29.97,SSE,155,6.0,8.0,59,0.00,,,0.00,meteohub,2013-07-17 03:02:00,
2013-07-16 21:08:00,59.9,45.5,29.98,SE,145,6.0,8.0,59,0.00,,,0.00,meteohub,2013-07-17 03:08:00,
2013-07-16 21:13:00,59.7,45.3,29.98,SSW,203,2.0,8.0,59,0.00,,,0.00,meteohub,2013-07-17 03:13:00,
2013-07-16 21:18:00,59.5,45.7,29.98,SSE,156,2.0,8.0,60,0.00,,,0.00,meteohub,2013-07-17 03:18:00,
2013-07-16 21:23:00,59.2,45.3,29.98,South,184,0.0,8.0,60,0.00,,,0.00,meteohub,2013-07-17 03:23:00,
2013-07-16 21:28:00,59.0,45.1,29.99,NE,37,2.0,6.0,60,0.00,,,0.00,meteohub,2013-07-17 03:28:00,
2013-07-16 21:33:00,58.8,45.0,29.99,SSW,207,6.0,6.0,60,0.00,,,0.00,meteohub,2013-07-17 03:33:00,
2013-07-16 21:38:00,58.6,44.8,29.99,South,172,2.0,7.0,60,0.00,,,0.00,meteohub,2013-07-17 03:38:00,
2013-07-16 21:43:00,58.3,45.0,29.99,SSW,210,1.0,7.0,61,0.00,,,0.00,meteohub,2013-07-17 03:43:00,
2013-07-16 21:48:00,58.3,45.0,30.00,SW,235,2.0,7.0,61,0.00,,,0.00,meteohub,2013-07-17 03:48:00,
2013-07-16 21:53:00,58.3,45.0,30.00,SW,218,4.0,5.0,61,0.00,,,0.00,meteohub,2013-07-17 03:53:00,
2013-07-16 21:58:00,57.9,45.0,30.00,South,186,1.0,6.0,62,0.00,,,0.00,meteohub,2013-07-17 03:58:00,
2013-07-16 22:01:00,57.9,44.6,30.00,SSW,212,3.0,6.0,61,0.00,,,0.00,meteohub,2013-07-17 04:01:00,
2013-07-16 22:02:00,57.9,44.6,30.00,SW,232,4.0,6.0,61,0.00,,,0.00,meteohub,2013-07-17 04:02:00,
2013-07-16 22:03:00,57.9,44.6,30.01,WSW,242,1.0,6.0,61,0.00,,,0.00,meteohub,2013-07-17 04:03:00,
2013-07-16 22:08:00,57.9,45.0,30.01,South,191,4.0,6.0,62,0.00,,,0.00,meteohub,2013-07-17 04:08:00,
2013-07-16 22:10:00,57.9,44.6,30.01,SSE,163,3.0,6.0,61,0.00,,,0.00,meteohub,2013-07-17 04:10:00,
2013-07-16 22:15:00,57.9,44.6,30.01,SW,224,3.0,6.0,61,0.00,,,0.00,meteohub,2013-07-17 04:15:00,
2013-07-16 22:20:00,57.9,44.6,30.01,SE,146,4.0,6.0,61,0.00,,,0.00,meteohub,2013-07-17 04:20:00,
2013-07-16 22:25:00,57.9,44.6,30.01,SSW,199,3.0,6.0,61,0.00,,,0.00,meteohub,2013-07-17 04:25:00,
2013-07-16 22:30:00,57.7,44.4,30.01,SSW,211,3.0,6.0,61,0.00,,,0.00,meteohub,2013-07-17 04:30:00,
2013-07-16 22:35:00,57.7,44.8,30.01,SW,231,5.0,7.0,62,0.00,,,0.00,meteohub,2013-07-17 04:35:00,
2013-07-16 22:40:00,57.4,44.4,30.02,SW,224,2.0,7.0,62,0.00,,,0.00,meteohub,2013-07-17 04:40:00,
2013-07-16 22:45:00,57.2,44.8,30.01,WSW,243,3.0,5.0,63,0.00,,,0.00,meteohub,2013-07-17 04:45:00,
2013-07-16 22:50:00,56.8,44.8,30.02,SW,224,4.0,5.0,64,0.00,,,0.00,meteohub,2013-07-17 04:50:00,
2013-07-16 22:55:00,56.8,44.8,30.02,WSW,240,5.0,7.0,64,0.00,,,0.00,meteohub,2013-07-17 04:55:00,
2013-07-16 22:56:00,56.8,44.8,30.02,SW,226,7.0,7.0,64,0.00,,,0.00,meteohub,2013-07-17 04:56:00,
2013-07-16 22:59:00,56.8,44.8,30.02,WSW,253,3.0,7.0,64,0.00,,,0.00,meteohub,2013-07-17 04:59:00,
2013-07-16 23:04:00,56.7,45.0,30.02,SW,235,5.0,7.0,65,0.00,,,0.00,meteohub,2013-07-17 05:04:00,
2013-07-16 23:09:00,56.5,44.8,30.02,WSW,238,4.0,7.0,65,0.00,,,0.00,meteohub,2013-07-17 05:09:00,
2013-07-16 23:14:00,56.7,45.0,30.02,SW,235,4.0,7.0,65,0.00,,,0.00,meteohub,2013-07-17 05:14:00,
2013-07-16 23:19:00,56.7,45.0,30.02,SW,225,6.0,7.0,65,0.00,,,0.00,meteohub,2013-07-17 05:19:00,
2013-07-16 23:24:00,56.5,44.8,30.02,WSW,246,2.0,7.0,65,0.00,,,0.00,meteohub,2013-07-17 05:24:00,
2013-07-16 23:30:00,56.5,44.8,30.02,SW,229,5.0,7.0,65,0.00,,,0.00,meteohub,2013-07-17 05:30:00,
2013-07-16 23:35:00,56.3,44.6,30.02,SW,221,5.0,7.0,65,0.00,,,0.00,meteohub,2013-07-17 05:35:00,
2013-07-16 23:40:00,56.3,44.6,30.02,SW,229,5.0,7.0,65,0.00,,,0.00,meteohub,2013-07-17 05:40:00,
2013-07-16 23:45:00,56.3,45.1,30.02,SW,228,4.0,6.0,66,0.00,,,0.00,meteohub,2013-07-17 05:45:00,
2013-07-16 23:50:00,56.1,45.0,30.02,SW,232,5.0,6.0,66,0.00,,,0.00,meteohub,2013-07-17 05:50:00,
2013-07-16 23:55:00,56.1,45.0,30.03,South,170,4.0,6.0,66,0.00,,,0.00,meteohub,2013-07-17 05:55:00,